createdAt,value
2024-01-24T00:01:57.341Z,2.58
2024-01-24T00:04:59.592Z,2.72
2024-01-24T00:08:01.847Z,2.75
2024-01-24T00:11:04.086Z,2.30
2024-01-24T00:14:06.372Z,2.60
2024-01-24T00:17:08.697Z,2.30
2024-01-24T00:20:13.560Z,2.92
2024-01-24T00:23:15.717Z,2.28
2024-01-24T00:26:18.071Z,2.50
2024-01-24T00:29:20.400Z,2.15
2024-01-24T00:32:22.997Z,2.05
2024-01-24T00:35:25.341Z,2.20
2024-01-24T00:38:27.664Z,2.00
2024-01-24T00:41:29.850Z,1.90
2024-01-24T00:44:32.553Z,1.90
2024-01-24T00:47:35.193Z,2.28
2024-01-24T00:50:37.463Z,1.98
2024-01-24T00:53:40.754Z,1.90
2024-01-24T00:56:42.910Z,2.15
2024-01-24T00:59:45.099Z,1.58
2024-01-24T01:02:47.733Z,1.45
2024-01-24T01:05:49.995Z,1.50
2024-01-24T01:08:52.234Z,1.38
2024-01-24T01:11:54.515Z,1.58
2024-01-24T01:14:56.782Z,1.58
2024-01-24T01:17:59.062Z,1.90
2024-01-24T01:21:01.252Z,1.30
2024-01-24T01:24:03.568Z,1.25
2024-01-24T01:27:05.967Z,1.20
2024-01-24T01:30:08.665Z,1.42
2024-01-24T01:33:11.055Z,1.40
2024-01-24T01:36:18.297Z,1.50
2024-01-24T01:39:25.560Z,1.40
2024-01-24T01:42:28.010Z,1.50
2024-01-24T01:45:30.648Z,1.30
2024-01-24T01:48:33.596Z,1.15
2024-01-24T01:51:36.187Z,1.27
2024-01-24T01:54:42.229Z,1.30
2024-01-24T01:57:45.470Z,1.08
2024-01-24T02:03:50.164Z,1.10
2024-01-24T02:06:52.564Z,1.20
2024-01-24T02:09:55.757Z,1.00
2024-01-24T02:12:58.011Z,0.98
2024-01-24T02:16:06.507Z,1.00
2024-01-24T02:19:08.897Z,1.00
2024-01-24T02:22:11.142Z,0.93
2024-01-24T02:25:13.952Z,0.80
2024-01-24T02:28:16.126Z,0.82
2024-01-24T02:31:18.427Z,0.88
2024-01-24T02:34:20.661Z,0.70
2024-01-24T02:37:22.926Z,1.20
2024-01-24T02:40:25.284Z,0.93
2024-01-24T02:43:27.462Z,0.68
2024-01-24T02:46:29.661Z,0.98
2024-01-24T02:49:32.409Z,0.90
2024-01-24T02:52:34.768Z,0.80
2024-01-24T02:55:37.088Z,0.60
2024-01-24T02:58:39.432Z,0.82
2024-01-24T03:01:42.896Z,0.60
2024-01-24T03:04:45.280Z,0.85
2024-01-24T03:07:47.920Z,0.60
2024-01-24T03:10:50.237Z,0.70
2024-01-24T03:13:52.573Z,0.70
2024-01-24T03:16:54.788Z,0.80
2024-01-24T03:19:56.971Z,0.70
2024-01-24T03:23:00.305Z,1.10
2024-01-24T03:26:03.553Z,0.75
2024-01-24T03:29:05.915Z,0.75
2024-01-24T03:32:08.289Z,1.00
2024-01-24T03:35:11.550Z,0.60
2024-01-24T03:41:15.959Z,0.70
2024-01-24T03:44:18.266Z,0.50
2024-01-24T03:47:20.880Z,0.70
2024-01-24T03:50:23.002Z,0.50
2024-01-24T03:53:25.366Z,0.70
2024-01-24T03:56:27.559Z,0.75
2024-01-24T03:59:29.798Z,0.60
2024-01-24T04:02:31.936Z,0.80
2024-01-24T04:05:34.233Z,0.50
2024-01-24T04:08:36.444Z,0.80
2024-01-24T04:11:41.485Z,0.90
2024-01-24T04:14:43.654Z,0.70
2024-01-24T04:17:45.955Z,0.55
2024-01-24T04:20:48.330Z,0.60
2024-01-24T04:23:50.643Z,0.50
2024-01-24T04:26:52.937Z,0.50
2024-01-24T04:29:55.652Z,0.50
2024-01-24T04:32:58.063Z,0.40
2024-01-24T04:36:02.633Z,0.60
2024-01-24T04:39:04.861Z,0.40
2024-01-24T04:42:12.328Z,0.40
2024-01-24T04:45:19.978Z,0.80
2024-01-24T04:48:23.213Z,0.75
2024-01-24T04:54:27.802Z,0.90
2024-01-24T04:57:30.123Z,1.00
2024-01-24T05:00:34.996Z,1.58
2024-01-24T05:03:37.272Z,1.00
2024-01-24T05:06:39.732Z,1.15
2024-01-24T05:09:42.079Z,1.20
2024-01-24T05:12:44.330Z,1.20
2024-01-24T05:15:46.681Z,1.55
2024-01-24T05:18:49.052Z,1.90
2024-01-24T05:21:51.410Z,1.80
2024-01-24T05:24:53.884Z,2.25
2024-01-24T05:27:56.187Z,1.80
2024-01-24T05:30:58.545Z,1.60
2024-01-24T05:34:01.192Z,1.45
2024-01-24T05:37:03.867Z,1.60
2024-01-24T05:40:06.488Z,1.83
2024-01-24T05:43:08.819Z,2.47
2024-01-24T05:46:11.501Z,1.60
2024-01-24T05:49:13.835Z,2.88
2024-01-24T05:52:16.198Z,3.38
2024-01-24T05:55:18.483Z,3.28
2024-01-24T05:58:20.804Z,3.40
2024-01-24T06:01:23.242Z,3.03
2024-01-24T06:04:25.764Z,3.63
2024-01-24T06:07:28.075Z,4.10
2024-01-24T06:10:30.497Z,4.38
2024-01-24T06:13:32.719Z,4.30
2024-01-24T06:16:34.949Z,4.47
2024-01-24T06:19:37.319Z,9.50
2024-01-24T06:22:42.220Z,3.80
2024-01-24T06:25:44.417Z,4.72
2024-01-24T06:28:47.946Z,4.13
2024-01-24T06:31:51.234Z,4.13
2024-01-24T06:37:56.767Z,4.07
2024-01-24T06:44:01.220Z,4.35
2024-01-24T06:47:03.895Z,4.10
2024-01-24T06:50:10.825Z,5.05
2024-01-24T06:53:15.817Z,4.63
2024-01-24T06:56:18.921Z,3.67
2024-01-24T06:59:21.095Z,4.07
2024-01-24T07:02:23.406Z,4.47
2024-01-24T07:05:25.589Z,5.03
2024-01-24T07:08:27.746Z,5.13
2024-01-24T07:11:30.140Z,5.90
2024-01-24T07:14:32.440Z,4.05
2024-01-24T07:17:34.807Z,5.15
2024-01-24T07:20:37.131Z,3.70
2024-01-24T07:23:40.334Z,6.13
2024-01-24T07:26:42.540Z,4.88
2024-01-24T07:29:44.988Z,4.75
2024-01-24T07:32:47.249Z,5.03
2024-01-24T07:35:49.530Z,6.05
2024-01-24T07:38:52.097Z,6.05
2024-01-24T07:41:54.984Z,5.18
2024-01-24T07:44:57.189Z,5.75
2024-01-24T07:47:59.586Z,5.35
2024-01-24T07:51:01.935Z,6.25
2024-01-24T07:54:04.753Z,5.25
2024-01-24T07:57:07.606Z,5.97
2024-01-24T08:00:13.804Z,6.35
2024-01-24T08:03:18.058Z,6.40
2024-01-24T08:06:20.764Z,6.70
2024-01-24T08:09:23.727Z,5.72
2024-01-24T08:12:26.189Z,6.93
2024-01-24T08:15:28.427Z,7.28
2024-01-24T08:18:30.815Z,6.30
2024-01-24T08:21:33.112Z,7.03
2024-01-24T08:24:35.353Z,6.00
2024-01-24T08:27:37.726Z,6.47
2024-01-24T08:30:40.246Z,6.83
2024-01-24T08:33:42.708Z,7.97
2024-01-24T08:36:45.866Z,6.00
2024-01-24T08:39:48.031Z,6.70
2024-01-24T08:42:50.865Z,7.18
2024-01-24T08:45:53.699Z,6.53
2024-01-24T08:48:55.949Z,7.20
2024-01-24T08:51:58.645Z,6.05
2024-01-24T08:55:01.649Z,6.75
2024-01-24T08:58:04.353Z,6.60
2024-01-24T09:01:07.019Z,7.00
2024-01-24T09:04:09.678Z,5.03
2024-01-24T09:07:12.232Z,6.50
2024-01-24T09:10:14.691Z,5.93
2024-01-24T09:13:21.753Z,6.32
2024-01-24T09:16:24.293Z,5.93
2024-01-24T09:19:26.676Z,6.63
2024-01-24T09:22:29.055Z,5.90
2024-01-24T09:25:32.008Z,8.57
2024-01-24T09:28:34.439Z,6.82
2024-01-24T09:31:36.729Z,6.72
2024-01-24T09:34:39.057Z,6.38
2024-01-24T09:37:41.602Z,7.43
2024-01-24T09:40:44.632Z,7.00
2024-01-24T09:43:48.241Z,6.00
2024-01-24T09:46:56.889Z,7.30
2024-01-24T09:50:00.483Z,7.75
2024-01-24T09:53:06.710Z,7.25
2024-01-24T09:56:10.014Z,6.60
2024-01-24T09:59:14.411Z,6.70
2024-01-24T10:02:16.634Z,7.22
2024-01-24T10:05:19.539Z,6.82
2024-01-24T10:08:21.758Z,6.78
2024-01-24T10:11:24.549Z,7.05
2024-01-24T10:14:26.892Z,6.35
2024-01-24T10:17:31.368Z,7.27
2024-01-24T10:20:33.835Z,7.35
2024-01-24T10:23:36.122Z,7.30
2024-01-24T10:26:38.600Z,6.85
2024-01-24T10:29:41.120Z,6.97
2024-01-24T10:32:46.911Z,7.35
2024-01-24T10:35:50.304Z,6.80
2024-01-24T10:38:58.345Z,7.65
2024-01-24T10:42:04.453Z,8.23
2024-01-24T10:45:08.443Z,7.13
2024-01-24T10:48:12.393Z,8.50
2024-01-24T10:51:14.692Z,7.63
2024-01-24T10:54:17.321Z,7.53
2024-01-24T10:57:20.885Z,6.80
2024-01-24T11:00:24.190Z,6.38
2024-01-24T11:06:31.068Z,6.88
2024-01-24T11:09:55.262Z,6.45
2024-01-24T11:12:58.113Z,6.47
2024-01-24T11:16:00.794Z,8.40
2024-01-24T11:19:22.695Z,7.67
2024-01-24T11:22:30.234Z,6.68
2024-01-24T11:25:39.369Z,6.72
2024-01-24T11:28:41.746Z,7.68
2024-01-24T11:31:45.530Z,8.13
2024-01-24T11:34:48.032Z,8.32
2024-01-24T11:37:53.284Z,6.83
2024-01-24T11:41:01.624Z,7.45
2024-01-24T11:44:12.282Z,7.20
2024-01-24T11:47:16.116Z,7.45
2024-01-24T11:50:20.704Z,7.25
2024-01-24T11:53:25.184Z,7.50
2024-01-24T11:56:27.515Z,7.13
2024-01-24T11:59:29.906Z,7.70
2024-01-24T12:02:32.338Z,6.97
2024-01-24T12:05:34.750Z,6.25
2024-01-24T12:08:38.970Z,6.83
2024-01-24T12:11:41.139Z,7.65
2024-01-24T12:14:43.704Z,7.45
2024-01-24T12:17:46.918Z,6.43
2024-01-24T12:20:50.365Z,7.13
2024-01-24T12:26:56.182Z,7.07
2024-01-24T12:30:00.086Z,6.57
2024-01-24T12:33:03.454Z,6.90
2024-01-24T12:36:06.441Z,6.65
2024-01-24T12:39:08.845Z,7.07
2024-01-24T12:42:11.555Z,7.53
2024-01-24T12:45:14.712Z,7.78
2024-01-24T12:48:18.628Z,7.63
2024-01-24T12:51:22.321Z,6.90
2024-01-24T12:54:25.894Z,7.97
2024-01-24T12:57:29.593Z,6.50
2024-01-24T13:00:34.664Z,6.80
2024-01-24T13:03:37.462Z,6.70
2024-01-24T13:06:41.570Z,5.97
2024-01-24T13:09:55.763Z,7.00
2024-01-24T13:13:00.268Z,6.35
2024-01-24T13:16:04.241Z,6.88
2024-01-24T13:19:06.590Z,6.90
2024-01-24T13:22:09.038Z,6.97
2024-01-24T13:25:11.612Z,7.53
2024-01-24T13:28:14.719Z,6.43
2024-01-24T13:31:17.200Z,5.90
2024-01-24T13:34:30.264Z,6.60
2024-01-24T13:37:32.695Z,6.30
2024-01-24T13:40:35.103Z,6.22
2024-01-24T13:43:37.407Z,7.53
2024-01-24T13:46:40.098Z,6.57
2024-01-24T13:49:44.254Z,5.97
2024-01-24T13:52:46.899Z,7.10
2024-01-24T13:55:49.129Z,6.60
2024-01-24T13:58:52.430Z,6.80
2024-01-24T14:01:59.970Z,7.67
2024-01-24T14:05:03.386Z,9.80
2024-01-24T14:08:05.847Z,7.68
2024-01-24T14:11:08.532Z,6.97
2024-01-24T14:14:11.135Z,6.23
2024-01-24T14:17:13.382Z,6.50
2024-01-24T14:20:16.317Z,7.15
2024-01-24T14:23:18.487Z,7.45
2024-01-24T14:26:20.848Z,6.05
2024-01-24T14:29:24.410Z,5.45
2024-01-24T14:32:26.831Z,6.22
2024-01-24T14:35:31.966Z,6.57
2024-01-24T14:38:34.405Z,6.28
2024-01-24T14:41:36.678Z,6.53
2024-01-24T14:44:39.009Z,5.45
2024-01-24T14:47:42.253Z,6.43
2024-01-24T14:50:45.678Z,6.13
2024-01-24T14:53:49.459Z,6.85
2024-01-24T14:56:52.158Z,5.85
2024-01-24T14:59:54.339Z,6.82
2024-01-24T15:02:56.790Z,7.47
2024-01-24T15:05:59.381Z,5.37
2024-01-24T15:09:01.602Z,7.13
2024-01-24T15:12:05.578Z,7.45
2024-01-24T15:15:08.811Z,6.57
2024-01-24T15:21:14.221Z,6.63
2024-01-24T15:24:17.514Z,6.53
2024-01-24T15:27:21.506Z,6.65
2024-01-24T15:30:23.984Z,6.47
2024-01-24T15:33:26.560Z,6.73
2024-01-24T15:36:28.917Z,7.37
2024-01-24T15:39:31.553Z,6.55
2024-01-24T15:42:41.824Z,6.80
2024-01-24T15:45:44.804Z,6.13
2024-01-24T15:48:47.868Z,6.65
2024-01-24T15:51:50.927Z,6.63
2024-01-24T15:54:53.620Z,7.15
2024-01-24T15:57:56.104Z,6.72
2024-01-24T16:00:58.892Z,6.47
2024-01-24T16:04:02.056Z,6.72
2024-01-24T16:07:04.803Z,7.20
2024-01-24T16:10:07.402Z,9.07
2024-01-24T16:13:10.133Z,10.65
2024-01-24T16:16:14.087Z,7.83
2024-01-24T16:19:17.029Z,6.60
2024-01-24T16:22:23.951Z,7.15
2024-01-24T16:25:32.260Z,6.07
2024-01-24T16:28:34.679Z,8.00
2024-01-24T16:31:36.824Z,6.87
2024-01-24T16:34:39.256Z,7.53
2024-01-24T16:37:41.662Z,7.03
2024-01-24T16:40:43.857Z,7.28
2024-01-24T16:43:47.901Z,6.90
2024-01-24T16:46:50.611Z,6.93
2024-01-24T16:49:56.607Z,6.53
2024-01-24T16:52:58.887Z,7.20
2024-01-24T16:56:01.171Z,6.45
2024-01-24T16:59:03.980Z,7.38
2024-01-24T17:02:06.173Z,7.85
2024-01-24T17:05:11.064Z,7.32
2024-01-24T17:08:13.383Z,8.10
2024-01-24T17:11:19.359Z,7.70
2024-01-24T17:14:21.610Z,7.65
2024-01-24T17:17:24.232Z,7.10
2024-01-24T17:20:29.738Z,7.15
2024-01-24T17:23:32.295Z,8.10
2024-01-24T17:26:34.515Z,8.50
2024-01-24T17:29:36.766Z,8.10
2024-01-24T17:32:39.224Z,7.32
2024-01-24T17:35:42.954Z,7.27
2024-01-24T17:39:27.487Z,7.38
2024-01-24T17:42:30.144Z,7.30
2024-01-24T17:45:35.009Z,6.53
2024-01-24T17:48:38.112Z,6.38
2024-01-24T17:51:40.630Z,7.78
2024-01-24T17:54:42.910Z,7.03
2024-01-24T17:57:45.593Z,7.57
2024-01-24T18:00:48.426Z,7.00
2024-01-24T18:03:50.810Z,7.05
2024-01-24T18:06:53.808Z,7.55
2024-01-24T18:09:57.243Z,7.63
2024-01-24T18:12:59.824Z,7.25
2024-01-24T18:16:02.195Z,6.37
2024-01-24T18:19:04.743Z,6.75
2024-01-24T18:22:09.150Z,7.03
2024-01-24T18:25:11.770Z,6.72
2024-01-24T18:28:14.285Z,5.40
2024-01-24T18:31:16.914Z,6.20
2024-01-24T18:34:20.367Z,7.75
2024-01-24T18:37:23.212Z,6.05
2024-01-24T18:40:25.638Z,7.22
2024-01-24T18:43:28.069Z,7.27
2024-01-24T18:46:31.759Z,7.25
2024-01-24T18:49:36.582Z,6.18
2024-01-24T18:52:38.942Z,7.25
2024-01-24T18:55:41.322Z,7.63
2024-01-24T18:58:43.744Z,11.67
2024-01-24T19:01:46.816Z,8.00
2024-01-24T19:04:49.286Z,8.83
2024-01-24T19:07:52.562Z,8.35
2024-01-24T19:10:54.785Z,8.40
2024-01-24T19:13:57.220Z,7.35
2024-01-24T19:17:01.420Z,7.55
2024-01-24T19:20:03.851Z,6.28
2024-01-24T19:23:06.287Z,7.10
2024-01-24T19:26:08.657Z,7.65
2024-01-24T19:29:11.527Z,7.28
2024-01-24T19:32:14.888Z,7.47
2024-01-24T19:38:20.343Z,7.20
2024-01-24T19:41:24.056Z,7.43
2024-01-24T19:44:26.492Z,7.43
2024-01-24T19:47:30.171Z,8.55
2024-01-24T19:50:32.456Z,7.35
2024-01-24T19:53:34.810Z,6.45
2024-01-24T19:56:37.074Z,8.35
2024-01-24T19:59:39.252Z,8.15
2024-01-24T20:02:41.532Z,7.53
2024-01-24T20:05:43.796Z,7.55
2024-01-24T20:08:46.805Z,8.07
2024-01-24T20:11:49.626Z,7.25
2024-01-24T20:14:51.944Z,7.18
2024-01-24T20:17:55.380Z,8.48
2024-01-24T20:20:57.684Z,7.88
2024-01-24T20:23:59.851Z,8.38
2024-01-24T20:27:02.063Z,7.85
2024-01-24T20:30:04.759Z,8.05
2024-01-24T20:33:07.535Z,8.10
2024-01-24T20:36:13.074Z,7.80
2024-01-24T20:39:18.479Z,8.30
2024-01-24T20:42:28.695Z,7.65
2024-01-24T20:45:32.547Z,8.27
2024-01-24T20:48:35.100Z,7.47
2024-01-24T20:51:37.583Z,7.70
2024-01-24T20:54:40.171Z,7.75
2024-01-24T20:57:42.504Z,8.57
2024-01-24T21:00:44.888Z,8.27
2024-01-24T21:03:49.057Z,7.18
2024-01-24T21:06:51.590Z,7.85
2024-01-24T21:09:53.873Z,7.93
2024-01-24T21:12:56.182Z,8.48
2024-01-24T21:15:58.683Z,8.73
2024-01-24T21:19:00.864Z,7.87
2024-01-24T21:22:03.969Z,7.40
2024-01-24T21:25:06.530Z,8.95
2024-01-24T21:28:08.954Z,8.80
2024-01-24T21:31:12.362Z,10.35
2024-01-24T21:34:15.109Z,8.65
2024-01-24T21:37:17.436Z,8.68
2024-01-24T21:40:19.681Z,8.27
2024-01-24T21:43:21.993Z,8.20
2024-01-24T21:46:24.682Z,8.73
2024-01-24T21:49:28.121Z,9.02
2024-01-24T21:55:32.822Z,8.05
2024-01-24T21:58:37.504Z,8.43
2024-01-24T22:01:39.789Z,8.38
2024-01-24T22:04:42.096Z,8.95
2024-01-24T22:07:47.128Z,8.32
2024-01-24T22:10:49.469Z,8.85
2024-01-24T22:13:51.918Z,7.78
2024-01-24T22:16:54.341Z,8.18
2024-01-24T22:19:56.539Z,8.23
2024-01-24T22:22:58.799Z,8.20
2024-01-24T22:26:04.009Z,7.70
2024-01-24T22:29:08.261Z,9.18
2024-01-24T22:32:10.485Z,9.00
2024-01-24T22:35:15.309Z,8.45
2024-01-24T22:38:17.639Z,8.30
2024-01-24T22:41:20.040Z,8.00
2024-01-24T22:44:22.292Z,7.72
2024-01-24T22:47:25.017Z,8.70
2024-01-24T22:50:27.368Z,8.40
2024-01-24T22:53:29.581Z,8.35
2024-01-24T22:56:32.104Z,8.23
2024-01-24T22:59:34.314Z,7.93
2024-01-24T23:02:36.645Z,8.55
2024-01-24T23:05:38.883Z,7.40
2024-01-24T23:08:41.238Z,8.27
2024-01-24T23:11:43.607Z,7.45
2024-01-24T23:14:45.867Z,9.05
2024-01-24T23:17:48.352Z,8.75
2024-01-24T23:20:51.479Z,8.53
2024-01-24T23:23:54.234Z,7.43
2024-01-24T23:26:56.445Z,8.48
2024-01-24T23:29:58.806Z,7.97
2024-01-24T23:33:01.130Z,7.32
2024-01-24T23:36:04.010Z,7.93
2024-01-24T23:39:06.215Z,8.82
2024-01-24T23:42:08.703Z,8.30
2024-01-24T23:45:12.558Z,7.83
2024-01-24T23:48:14.935Z,8.57
2024-01-24T23:51:17.556Z,7.97
2024-01-24T23:54:19.929Z,9.00
2024-01-24T23:57:22.153Z,8.98
